Time,TemperatureF,DewpointF,PressureIn,WindDirection,WindDirectionDegrees,WindSpeedMPH,WindSpeedGustMPH,Humidity,HourlyPrecipIn,Conditions,Clouds,dailyrainin,SoftwareType,DateUTC
2013-05-18 00:00:00,47.8,42.3,30.18,SW,225,0.0,0.0,81,0.00,,---,0.00,VWS V14.01,2013-05-18 03:00:00,
2013-05-18 00:30:00,47.3,42.7,30.18,SW,225,0.0,0.0,84,0.00,,---,0.00,VWS V14.01,2013-05-18 03:30:00,
2013-05-18 01:00:00,47.1,42.8,30.19,SW,225,0.0,0.0,85,0.00,,---,0.00,VWS V14.01,2013-05-18 04:00:00,
2013-05-18 01:30:00,46.9,42.9,30.19,SW,225,0.0,0.0,86,0.00,,---,0.00,VWS V14.01,2013-05-18 04:30:00,
2013-05-18 02:00:00,47.2,43.5,30.19,SW,225,0.0,0.0,87,0.00,,---,0.00,VWS V14.01,2013-05-18 05:00:00,
2013-05-18 02:30:00,47.3,43.6,30.19,SW,225,0.0,0.0,87,0.00,,---,0.00,VWS V14.01,2013-05-18 05:30:00,
2013-05-18 03:00:00,47.0,43.3,30.19,SW,225,0.0,0.0,87,0.00,,---,0.00,VWS V14.01,2013-05-18 06:00:00,
2013-05-18 03:30:00,45.9,42.8,30.19,SW,225,0.0,0.0,89,0.00,,---,0.00,VWS V14.01,2013-05-18 06:30:00,
2013-05-18 04:00:00,44.7,42.0,30.19,SW,225,0.0,0.0,90,0.00,,---,0.00,VWS V14.01,2013-05-18 07:00:00,
2013-05-18 04:30:00,43.5,40.8,30.20,SW,225,0.0,0.0,90,0.00,,---,0.00,VWS V14.01,2013-05-18 07:30:00,
2013-05-18 05:00:00,42.6,40.2,30.21,SW,225,0.0,0.0,91,0.00,,---,0.00,VWS V14.01,2013-05-18 08:00:00,
2013-05-18 05:30:00,42.0,39.8,30.21,SW,225,0.0,0.0,92,0.00,,---,0.00,VWS V14.01,2013-05-18 08:30:00,
2013-05-18 06:00:00,41.3,39.2,30.22,SW,225,0.0,0.0,92,0.00,,---,0.00,VWS V14.01,2013-05-18 09:00:00,
2013-05-18 06:30:00,40.7,38.6,30.23,SW,225,0.0,0.0,92,0.00,,---,0.00,VWS V14.01,2013-05-18 09:30:00,
2013-05-18 07:00:00,40.6,38.7,30.24,SW,225,0.0,0.0,93,0.00,,---,0.00,VWS V14.01,2013-05-18 10:00:00,
2013-05-18 07:30:00,41.1,39.5,30.25,SW,225,0.0,0.0,94,0.00,,---,0.00,VWS V14.01,2013-05-18 10:30:00,
2013-05-18 08:00:00,42.7,41.1,30.26,SW,225,0.0,0.0,94,0.00,,---,0.00,VWS V14.01,2013-05-18 11:00:00,
2013-05-18 08:30:00,46.4,45.0,30.26,SW,225,0.0,0.0,95,0.00,,---,0.00,VWS V14.01,2013-05-18 11:30:00,
2013-05-18 09:00:00,51.5,46.5,30.27,SW,225,0.0,0.0,83,0.00,,---,0.00,VWS V14.01,2013-05-18 12:00:00,
2013-05-18 09:30:00,58.0,50.1,30.28,SW,225,0.0,0.0,75,0.00,,---,0.00,VWS V14.01,2013-05-18 12:30:00,
2013-05-18 10:00:00,64.1,46.1,30.28,SW,225,0.0,0.0,52,0.00,,---,0.00,VWS V14.01,2013-05-18 13:00:00,
2013-05-18 10:30:00,66.1,44.2,30.28,NNW,338,0.0,4.0,45,0.00,,---,0.00,VWS V14.01,2013-05-18 13:30:00,
2013-05-18 11:00:00,66.7,42.9,30.27,NNW,338,0.0,4.0,42,0.00,,---,0.00,VWS V14.01,2013-05-18 14:00:00,
2013-05-18 11:30:00,70.6,45.1,30.27,ESE,112,0.0,4.0,40,0.00,,---,0.00,VWS V14.01,2013-05-18 14:30:00,
2013-05-18 12:00:00,71.7,44.1,30.27,South,180,1.0,5.0,37,0.00,,---,0.00,VWS V14.01,2013-05-18 15:00:00,
2013-05-18 12:30:00,74.3,45.7,30.26,SSW,202,1.0,7.0,36,0.00,,---,0.00,VWS V14.01,2013-05-18 15:30:00,
2013-05-18 13:00:00,75.2,41.7,30.25,SSE,158,1.0,6.0,30,0.00,,---,0.00,VWS V14.01,2013-05-18 16:00:00,
2013-05-18 13:30:00,74.0,38.9,30.24,NNW,338,1.0,6.0,28,0.00,,---,0.00,VWS V14.01,2013-05-18 16:30:00,
2013-05-18 14:00:00,70.0,45.9,30.24,NE,45,1.0,6.0,42,0.00,,---,0.00,VWS V14.01,2013-05-18 17:00:00,
2013-05-18 14:30:00,70.1,46.0,30.24,SE,135,1.0,7.0,42,0.00,,---,0.00,VWS V14.01,2013-05-18 17:30:00,
2013-05-18 15:00:00,67.5,47.1,30.25,NE,45,2.0,7.0,48,0.00,,---,0.00,VWS V14.01,2013-05-18 18:00:00,
2013-05-18 15:30:00,65.8,45.6,30.24,East,90,1.0,7.0,48,0.00,,---,0.00,VWS V14.01,2013-05-18 18:30:00,
2013-05-18 16:00:00,64.3,46.3,30.24,South,180,1.0,5.0,52,0.00,,---,0.00,VWS V14.01,2013-05-18 19:00:00,
2013-05-18 16:30:00,67.1,46.8,30.24,East,90,1.0,8.0,48,0.00,,---,0.00,VWS V14.01,2013-05-18 19:30:00,
2013-05-18 17:00:00,64.7,46.7,30.24,ENE,68,1.0,6.0,52,0.00,,---,0.00,VWS V14.01,2013-05-18 20:00:00,
2013-05-18 17:30:00,65.6,47.0,30.23,East,90,1.0,6.0,51,0.00,,---,0.00,VWS V14.01,2013-05-18 20:30:00,
2013-05-18 18:00:00,65.1,46.0,30.24,NE,45,1.0,6.0,50,0.00,,---,0.00,VWS V14.01,2013-05-18 21:00:00,
2013-05-18 18:30:00,62.9,47.5,30.23,NE,45,1.0,6.0,57,0.00,,---,0.00,VWS V14.01,2013-05-18 21:30:00,
2013-05-18 19:00:00,61.4,48.7,30.24,ESE,112,1.0,6.0,63,0.00,,---,0.00,VWS V14.01,2013-05-18 22:00:00,
2013-05-18 19:30:00,60.3,49.7,30.24,North,0,0.0,4.0,68,0.00,,---,0.00,VWS V14.01,2013-05-18 22:30:00,
2013-05-18 20:00:00,59.2,49.4,30.25,SSW,202,0.0,2.0,70,0.00,,---,0.00,VWS V14.01,2013-05-18 23:00:00,
2013-05-18 20:30:00,57.1,50.0,30.26,North,0,0.0,5.0,77,0.00,,---,0.00,VWS V14.01,2013-05-18 23:30:00,
2013-05-18 21:00:00,55.1,49.7,30.26,East,90,0.0,2.0,82,0.00,,---,0.00,VWS V14.01,2013-05-19 00:00:00,
2013-05-18 21:30:00,53.8,49.4,30.26,East,90,0.0,3.0,85,0.00,,---,0.00,VWS V14.01,2013-05-19 00:30:00,
2013-05-18 22:00:00,53.3,49.5,30.26,NNE,22,0.0,1.0,87,0.00,,---,0.00,VWS V14.01,2013-05-19 01:00:00,
2013-05-18 22:30:00,53.1,49.7,30.26,NNE,22,0.0,1.0,88,0.00,,---,0.00,VWS V14.01,2013-05-19 01:30:00,
2013-05-18 23:00:00,53.2,49.7,30.27,NNE,22,0.0,1.0,88,0.00,,---,0.00,VWS V14.01,2013-05-19 02:00:00,
2013-05-18 23:30:00,53.3,49.8,30.27,NNW,338,0.0,1.0,88,0.00,,---,0.00,VWS V14.01,2013-05-19 02:30:00,